sensor_id;sensor_type;location;lat;lon;timestamp;temperature;humidity
49777;DHT22;35673;51.482;7.436;2022-09-03T00:01:56;19.30;54.50
49777;DHT22;35673;51.482;7.436;2022-09-03T00:07:34;19.30;54.70
49777;DHT22;35673;51.482;7.436;2022-09-03T00:10:11;19.30;54.70
49777;DHT22;35673;51.482;7.436;2022-09-03T00:12:42;19.20;54.50
49777;DHT22;35673;51.482;7.436;2022-09-03T00:15:19;19.20;54.80
49777;DHT22;35673;51.482;7.436;2022-09-03T00:18:00;19.20;55.00
49777;DHT22;35673;51.482;7.436;2022-09-03T00:20:34;19.10;55.20
49777;DHT22;35673;51.482;7.436;2022-09-03T00:23:07;19.10;55.20
49777;DHT22;35673;51.482;7.436;2022-09-03T00:25:45;19.10;55.40
49777;DHT22;35673;51.482;7.436;2022-09-03T00:28:17;19.10;55.50
49777;DHT22;35673;51.482;7.436;2022-09-03T00:30:45;19.00;55.60
49777;DHT22;35673;51.482;7.436;2022-09-03T00:33:17;19.00;55.60
49777;DHT22;35673;51.482;7.436;2022-09-03T00:35:56;19.00;55.70
49777;DHT22;35673;51.482;7.436;2022-09-03T00:38:22;19.00;55.70
49777;DHT22;35673;51.482;7.436;2022-09-03T00:54:48;18.70;55.90
49777;DHT22;35673;51.482;7.436;2022-09-03T01:00:18;18.70;56.10
49777;DHT22;35673;51.482;7.436;2022-09-03T01:03:00;18.60;56.10
49777;DHT22;35673;51.482;7.436;2022-09-03T01:05:39;18.60;56.40
49777;DHT22;35673;51.482;7.436;2022-09-03T01:08:19;18.60;56.60
49777;DHT22;35673;51.482;7.436;2022-09-03T01:13:37;18.60;56.50
49777;DHT22;35673;51.482;7.436;2022-09-03T01:16:27;18.60;56.70
49777;DHT22;35673;51.482;7.436;2022-09-03T01:19:03;18.60;57.50
49777;DHT22;35673;51.482;7.436;2022-09-03T01:30:18;18.50;57.00
49777;DHT22;35673;51.482;7.436;2022-09-03T01:33:00;18.40;56.90
49777;DHT22;35673;51.482;7.436;2022-09-03T01:38:22;18.40;57.30
49777;DHT22;35673;51.482;7.436;2022-09-03T01:46:38;18.10;58.30
49777;DHT22;35673;51.482;7.436;2022-09-03T01:57:38;17.90;58.70
49777;DHT22;35673;51.482;7.436;2022-09-03T02:00:10;17.90;59.20
49777;DHT22;35673;51.482;7.436;2022-09-03T02:02:39;17.90;58.90
49777;DHT22;35673;51.482;7.436;2022-09-03T02:05:15;17.90;58.80
49777;DHT22;35673;51.482;7.436;2022-09-03T02:15:37;17.90;59.00
49777;DHT22;35673;51.482;7.436;2022-09-03T02:18:09;17.90;59.00
49777;DHT22;35673;51.482;7.436;2022-09-03T02:20:38;17.90;59.00
49777;DHT22;35673;51.482;7.436;2022-09-03T02:23:04;17.90;58.80
49777;DHT22;35673;51.482;7.436;2022-09-03T02:25:35;17.90;58.80
49777;DHT22;35673;51.482;7.436;2022-09-03T02:28:03;17.90;59.00
49777;DHT22;35673;51.482;7.436;2022-09-03T02:30:29;17.90;58.80
49777;DHT22;35673;51.482;7.436;2022-09-03T02:32:54;17.90;58.70
49777;DHT22;35673;51.482;7.436;2022-09-03T02:35:20;17.90;58.70
49777;DHT22;35673;51.482;7.436;2022-09-03T02:37:45;17.90;58.60
49777;DHT22;35673;51.482;7.436;2022-09-03T02:40:11;17.90;58.70
49777;DHT22;35673;51.482;7.436;2022-09-03T02:42:37;17.90;58.70
49777;DHT22;35673;51.482;7.436;2022-09-03T02:47:38;17.90;58.80
49777;DHT22;35673;51.482;7.436;2022-09-03T02:50:05;17.90;58.80
49777;DHT22;35673;51.482;7.436;2022-09-03T02:52:31;17.90;58.80
49777;DHT22;35673;51.482;7.436;2022-09-03T02:54:56;17.90;58.70
49777;DHT22;35673;51.482;7.436;2022-09-03T02:57:22;17.90;58.50
49777;DHT22;35673;51.482;7.436;2022-09-03T02:59:47;17.90;58.50
49777;DHT22;35673;51.482;7.436;2022-09-03T03:02:13;17.90;58.60
49777;DHT22;35673;51.482;7.436;2022-09-03T03:04:39;17.90;58.60
49777;DHT22;35673;51.482;7.436;2022-09-03T03:07:06;17.90;58.60
49777;DHT22;35673;51.482;7.436;2022-09-03T03:09:31;17.90;58.70
49777;DHT22;35673;51.482;7.436;2022-09-03T03:11:57;17.80;58.70
49777;DHT22;35673;51.482;7.436;2022-09-03T03:14:23;17.80;58.70
49777;DHT22;35673;51.482;7.436;2022-09-03T03:16:50;17.80;58.90
49777;DHT22;35673;51.482;7.436;2022-09-03T03:19:15;17.80;58.90
49777;DHT22;35673;51.482;7.436;2022-09-03T03:21:41;17.80;58.90
49777;DHT22;35673;51.482;7.436;2022-09-03T03:24:07;17.80;58.80
49777;DHT22;35673;51.482;7.436;2022-09-03T03:26:33;17.80;58.80
49777;DHT22;35673;51.482;7.436;2022-09-03T03:29:00;17.80;58.80
49777;DHT22;35673;51.482;7.436;2022-09-03T03:31:29;17.90;58.70
49777;DHT22;35673;51.482;7.436;2022-09-03T03:33:57;17.90;58.60
49777;DHT22;35673;51.482;7.436;2022-09-03T03:36:26;17.90;58.70
49777;DHT22;35673;51.482;7.436;2022-09-03T03:38:54;17.90;58.70
49777;DHT22;35673;51.482;7.436;2022-09-03T03:41:22;17.80;58.70
49777;DHT22;35673;51.482;7.436;2022-09-03T03:43:56;17.80;59.40
49777;DHT22;35673;51.482;7.436;2022-09-03T03:46:23;17.80;58.80
49777;DHT22;35673;51.482;7.436;2022-09-03T03:48:50;17.70;58.90
49777;DHT22;35673;51.482;7.436;2022-09-03T03:51:17;17.70;59.10
49777;DHT22;35673;51.482;7.436;2022-09-03T03:53:44;17.60;59.10
49777;DHT22;35673;51.482;7.436;2022-09-03T03:56:13;17.60;59.30
49777;DHT22;35673;51.482;7.436;2022-09-03T03:58:40;17.50;59.40
49777;DHT22;35673;51.482;7.436;2022-09-03T04:01:14;17.50;59.50
49777;DHT22;35673;51.482;7.436;2022-09-03T04:03:40;17.50;59.60
49777;DHT22;35673;51.482;7.436;2022-09-03T04:06:07;17.40;59.70
49777;DHT22;35673;51.482;7.436;2022-09-03T04:08:35;17.40;59.90
49777;DHT22;35673;51.482;7.436;2022-09-03T04:11:03;17.40;60.70
49777;DHT22;35673;51.482;7.436;2022-09-03T04:13:33;17.40;60.10
49777;DHT22;35673;51.482;7.436;2022-09-03T04:16:13;17.40;60.50
49777;DHT22;35673;51.482;7.436;2022-09-03T04:18:39;17.30;60.60
49777;DHT22;35673;51.482;7.436;2022-09-03T04:21:07;17.30;60.80
49777;DHT22;35673;51.482;7.436;2022-09-03T04:23:37;17.20;61.50
49777;DHT22;35673;51.482;7.436;2022-09-03T04:26:04;17.20;62.40
49777;DHT22;35673;51.482;7.436;2022-09-03T04:28:29;17.20;61.90
49777;DHT22;35673;51.482;7.436;2022-09-03T04:31:03;17.20;62.50
49777;DHT22;35673;51.482;7.436;2022-09-03T04:33:30;17.20;62.00
49777;DHT22;35673;51.482;7.436;2022-09-03T04:36:15;17.10;62.10
49777;DHT22;35673;51.482;7.436;2022-09-03T04:38:42;17.10;62.30
49777;DHT22;35673;51.482;7.436;2022-09-03T04:41:11;17.00;62.30
49777;DHT22;35673;51.482;7.436;2022-09-03T04:43:37;17.00;62.50
49777;DHT22;35673;51.482;7.436;2022-09-03T04:46:05;17.00;62.70
49777;DHT22;35673;51.482;7.436;2022-09-03T04:48:31;16.90;62.70
49777;DHT22;35673;51.482;7.436;2022-09-03T04:53:29;16.90;62.80
49777;DHT22;35673;51.482;7.436;2022-09-03T04:55:55;16.90;62.60
49777;DHT22;35673;51.482;7.436;2022-09-03T04:58:21;16.90;62.70
49777;DHT22;35673;51.482;7.436;2022-09-03T05:00:46;16.90;62.60
49777;DHT22;35673;51.482;7.436;2022-09-03T05:03:12;16.90;62.60
49777;DHT22;35673;51.482;7.436;2022-09-03T05:05:37;16.90;62.80
49777;DHT22;35673;51.482;7.436;2022-09-03T05:08:03;16.90;63.10
49777;DHT22;35673;51.482;7.436;2022-09-03T05:10:29;16.90;62.90
49777;DHT22;35673;51.482;7.436;2022-09-03T05:13:05;16.90;62.90
49777;DHT22;35673;51.482;7.436;2022-09-03T05:15:31;16.90;63.10
49777;DHT22;35673;51.482;7.436;2022-09-03T05:18:01;16.90;63.10
49777;DHT22;35673;51.482;7.436;2022-09-03T05:20:29;16.90;63.10
49777;DHT22;35673;51.482;7.436;2022-09-03T05:22:56;16.90;63.10
49777;DHT22;35673;51.482;7.436;2022-09-03T05:25:23;16.90;63.20
49777;DHT22;35673;51.482;7.436;2022-09-03T05:27:49;16.90;63.10
49777;DHT22;35673;51.482;7.436;2022-09-03T05:30:15;16.90;63.10
49777;DHT22;35673;51.482;7.436;2022-09-03T05:32:41;16.90;63.30
49777;DHT22;35673;51.482;7.436;2022-09-03T05:35:08;16.90;63.50
49777;DHT22;35673;51.482;7.436;2022-09-03T05:37:35;16.90;63.50
49777;DHT22;35673;51.482;7.436;2022-09-03T05:40:01;16.90;63.40
49777;DHT22;35673;51.482;7.436;2022-09-03T05:44:52;16.90;63.10
49777;DHT22;35673;51.482;7.436;2022-09-03T05:47:19;16.90;63.60
49777;DHT22;35673;51.482;7.436;2022-09-03T05:49:44;16.90;63.70
49777;DHT22;35673;51.482;7.436;2022-09-03T05:52:10;17.00;63.70
49777;DHT22;35673;51.482;7.436;2022-09-03T05:54:35;17.00;63.60
49777;DHT22;35673;51.482;7.436;2022-09-03T05:57:01;17.10;63.40
49777;DHT22;35673;51.482;7.436;2022-09-03T05:59:26;17.10;63.30
49777;DHT22;35673;51.482;7.436;2022-09-03T06:01:52;17.20;63.30
49777;DHT22;35673;51.482;7.436;2022-09-03T06:04:18;17.20;63.90
49777;DHT22;35673;51.482;7.436;2022-09-03T06:06:45;17.30;63.30
49777;DHT22;35673;51.482;7.436;2022-09-03T06:09:16;17.30;63.30
49777;DHT22;35673;51.482;7.436;2022-09-03T06:11:43;17.30;64.00
49777;DHT22;35673;51.482;7.436;2022-09-03T06:14:10;17.40;63.40
49777;DHT22;35673;51.482;7.436;2022-09-03T06:16:39;17.40;63.40
49777;DHT22;35673;51.482;7.436;2022-09-03T06:19:06;17.40;63.40
49777;DHT22;35673;51.482;7.436;2022-09-03T06:21:34;17.40;63.30
49777;DHT22;35673;51.482;7.436;2022-09-03T06:24:01;17.50;63.30
49777;DHT22;35673;51.482;7.436;2022-09-03T06:26:27;17.60;63.20
49777;DHT22;35673;51.482;7.436;2022-09-03T06:28:53;17.60;63.10
49777;DHT22;35673;51.482;7.436;2022-09-03T06:31:21;17.70;63.10
49777;DHT22;35673;51.482;7.436;2022-09-03T06:33:47;17.80;63.00
49777;DHT22;35673;51.482;7.436;2022-09-03T06:36:15;17.80;63.00
49777;DHT22;35673;51.482;7.436;2022-09-03T06:38:42;17.90;62.80
49777;DHT22;35673;51.482;7.436;2022-09-03T06:41:10;18.10;62.90
49777;DHT22;35673;51.482;7.436;2022-09-03T06:43:38;18.20;62.60
49777;DHT22;35673;51.482;7.436;2022-09-03T06:46:18;18.30;62.50
49777;DHT22;35673;51.482;7.436;2022-09-03T06:48:45;18.40;62.30
49777;DHT22;35673;51.482;7.436;2022-09-03T06:51:14;18.50;62.20
49777;DHT22;35673;51.482;7.436;2022-09-03T06:53:42;18.60;62.20
49777;DHT22;35673;51.482;7.436;2022-09-03T06:56:12;18.70;61.80
49777;DHT22;35673;51.482;7.436;2022-09-03T06:58:40;18.70;62.40
49777;DHT22;35673;51.482;7.436;2022-09-03T07:01:23;18.90;62.00
49777;DHT22;35673;51.482;7.436;2022-09-03T07:03:55;19.10;61.90
49777;DHT22;35673;51.482;7.436;2022-09-03T07:06:21;19.20;61.60
49777;DHT22;35673;51.482;7.436;2022-09-03T07:08:47;19.30;61.30
49777;DHT22;35673;51.482;7.436;2022-09-03T07:11:15;19.40;61.10
49777;DHT22;35673;51.482;7.436;2022-09-03T07:13:44;19.50;61.60
49777;DHT22;35673;51.482;7.436;2022-09-03T07:16:18;19.70;61.00
49777;DHT22;35673;51.482;7.436;2022-09-03T07:18:44;19.80;60.70
49777;DHT22;35673;51.482;7.436;2022-09-03T07:21:15;19.90;60.40
49777;DHT22;35673;51.482;7.436;2022-09-03T07:23:42;20.10;60.30
49777;DHT22;35673;51.482;7.436;2022-09-03T07:26:10;20.20;60.10
49777;DHT22;35673;51.482;7.436;2022-09-03T07:28:38;20.30;60.00
49777;DHT22;35673;51.482;7.436;2022-09-03T07:31:10;20.40;59.70
49777;DHT22;35673;51.482;7.436;2022-09-03T07:33:40;20.60;59.70
49777;DHT22;35673;51.482;7.436;2022-09-03T07:36:08;20.70;59.20
49777;DHT22;35673;51.482;7.436;2022-09-03T07:38:35;20.80;59.10
49777;DHT22;35673;51.482;7.436;2022-09-03T07:41:03;20.90;58.90
49777;DHT22;35673;51.482;7.436;2022-09-03T07:43:40;21.10;58.50
49777;DHT22;35673;51.482;7.436;2022-09-03T07:46:06;21.30;58.10
49777;DHT22;35673;51.482;7.436;2022-09-03T07:48:33;21.40;57.80
49777;DHT22;35673;51.482;7.436;2022-09-03T07:50:59;21.40;58.40
49777;DHT22;35673;51.482;7.436;2022-09-03T07:53:28;21.60;57.20
49777;DHT22;35673;51.482;7.436;2022-09-03T07:55:59;21.70;56.80
49777;DHT22;35673;51.482;7.436;2022-09-03T07:58:28;21.90;56.60
49777;DHT22;35673;51.482;7.436;2022-09-03T08:00:53;22.10;55.80
49777;DHT22;35673;51.482;7.436;2022-09-03T08:03:21;22.20;55.10
49777;DHT22;35673;51.482;7.436;2022-09-03T08:05:47;22.50;55.10
49777;DHT22;35673;51.482;7.436;2022-09-03T08:08:12;22.60;54.60
49777;DHT22;35673;51.482;7.436;2022-09-03T08:10:40;22.90;54.00
49777;DHT22;35673;51.482;7.436;2022-09-03T08:13:05;23.10;53.10
49777;DHT22;35673;51.482;7.436;2022-09-03T08:15:32;23.20;52.60
49777;DHT22;35673;51.482;7.436;2022-09-03T08:17:58;23.10;52.20
49777;DHT22;35673;51.482;7.436;2022-09-03T08:20:25;22.80;52.30
49777;DHT22;35673;51.482;7.436;2022-09-03T08:22:51;22.60;52.50
49777;DHT22;35673;51.482;7.436;2022-09-03T08:25:17;22.50;52.80
49777;DHT22;35673;51.482;7.436;2022-09-03T08:27:42;22.50;52.90
49777;DHT22;35673;51.482;7.436;2022-09-03T08:30:08;22.60;52.80
49777;DHT22;35673;51.482;7.436;2022-09-03T08:32:38;22.60;53.20
49777;DHT22;35673;51.482;7.436;2022-09-03T08:35:05;22.60;53.70
49777;DHT22;35673;51.482;7.436;2022-09-03T08:37:31;22.60;53.80
49777;DHT22;35673;51.482;7.436;2022-09-03T08:39:57;22.60;54.20
49777;DHT22;35673;51.482;7.436;2022-09-03T08:44:57;22.60;53.50
49777;DHT22;35673;51.482;7.436;2022-09-03T08:47:35;22.60;53.30
49777;DHT22;35673;51.482;7.436;2022-09-03T08:50:24;22.80;52.80
49777;DHT22;35673;51.482;7.436;2022-09-03T08:52:57;22.90;52.00
49777;DHT22;35673;51.482;7.436;2022-09-03T08:58:04;22.50;52.50
49777;DHT22;35673;51.482;7.436;2022-09-03T09:00:54;22.50;52.80
49777;DHT22;35673;51.482;7.436;2022-09-03T09:09:01;23.60;51.60
49777;DHT22;35673;51.482;7.436;2022-09-03T09:20:13;24.80;49.60
49777;DHT22;35673;51.482;7.436;2022-09-03T09:22:45;25.10;49.70
49777;DHT22;35673;51.482;7.436;2022-09-03T09:25:18;25.40;49.20
49777;DHT22;35673;51.482;7.436;2022-09-03T09:27:52;26.00;52.70
49777;DHT22;35673;51.482;7.436;2022-09-03T09:30:20;25.90;57.30
49777;DHT22;35673;51.482;7.436;2022-09-03T09:32:46;26.00;52.60
49777;DHT22;35673;51.482;7.436;2022-09-03T09:35:17;26.20;51.80
49777;DHT22;35673;51.482;7.436;2022-09-03T09:37:51;26.00;49.90
49777;DHT22;35673;51.482;7.436;2022-09-03T09:40:35;26.30;55.80
49777;DHT22;35673;51.482;7.436;2022-09-03T09:45:32;26.40;48.00
49777;DHT22;35673;51.482;7.436;2022-09-03T09:47:59;26.20;47.90
49777;DHT22;35673;51.482;7.436;2022-09-03T09:50:25;26.10;48.00
49777;DHT22;35673;51.482;7.436;2022-09-03T09:53:07;26.00;48.30
49777;DHT22;35673;51.482;7.436;2022-09-03T09:55:49;25.80;48.00
49777;DHT22;35673;51.482;7.436;2022-09-03T09:58:18;25.70;48.60
49777;DHT22;35673;51.482;7.436;2022-09-03T10:01:04;25.60;48.70
49777;DHT22;35673;51.482;7.436;2022-09-03T10:03:50;25.50;48.70
49777;DHT22;35673;51.482;7.436;2022-09-03T10:06:17;25.20;49.30
49777;DHT22;35673;51.482;7.436;2022-09-03T10:09:13;25.10;49.40
49777;DHT22;35673;51.482;7.436;2022-09-03T10:11:46;25.10;49.60
49777;DHT22;35673;51.482;7.436;2022-09-03T10:14:23;25.10;49.50
49777;DHT22;35673;51.482;7.436;2022-09-03T10:17:04;25.00;49.90
49777;DHT22;35673;51.482;7.436;2022-09-03T10:22:42;25.00;50.10
49777;DHT22;35673;51.482;7.436;2022-09-03T10:25:13;25.10;49.80
49777;DHT22;35673;51.482;7.436;2022-09-03T10:27:39;25.10;49.90
49777;DHT22;35673;51.482;7.436;2022-09-03T10:30:05;25.10;49.90
49777;DHT22;35673;51.482;7.436;2022-09-03T10:37:46;25.20;49.60
49777;DHT22;35673;51.482;7.436;2022-09-03T10:43:25;25.40;49.70
49777;DHT22;35673;51.482;7.436;2022-09-03T10:46:08;25.30;49.50
49777;DHT22;35673;51.482;7.436;2022-09-03T10:48:38;25.20;50.00
49777;DHT22;35673;51.482;7.436;2022-09-03T10:51:22;25.30;49.90
49777;DHT22;35673;51.482;7.436;2022-09-03T10:54:11;25.40;49.80
49777;DHT22;35673;51.482;7.436;2022-09-03T10:57:02;25.50;49.70
49777;DHT22;35673;51.482;7.436;2022-09-03T11:05:30;25.60;49.60
49777;DHT22;35673;51.482;7.436;2022-09-03T11:10:54;25.70;49.70
49777;DHT22;35673;51.482;7.436;2022-09-03T11:13:45;25.70;49.80
49777;DHT22;35673;51.482;7.436;2022-09-03T11:16:17;25.80;49.80
49777;DHT22;35673;51.482;7.436;2022-09-03T11:18:54;25.80;49.70
49777;DHT22;35673;51.482;7.436;2022-09-03T11:21:23;26.00;49.40
49777;DHT22;35673;51.482;7.436;2022-09-03T11:24:05;26.10;49.50
49777;DHT22;35673;51.482;7.436;2022-09-03T11:26:32;26.20;49.70
49777;DHT22;35673;51.482;7.436;2022-09-03T11:34:15;26.30;49.00
49777;DHT22;35673;51.482;7.436;2022-09-03T11:36:51;26.40;48.90
49777;DHT22;35673;51.482;7.436;2022-09-03T11:42:01;26.30;49.30
49777;DHT22;35673;51.482;7.436;2022-09-03T11:44:42;26.40;49.10
49777;DHT22;35673;51.482;7.436;2022-09-03T11:47:52;26.40;49.10
49777;DHT22;35673;51.482;7.436;2022-09-03T11:50:32;26.50;49.20
49777;DHT22;35673;51.482;7.436;2022-09-03T11:53:24;26.50;49.00
49777;DHT22;35673;51.482;7.436;2022-09-03T11:58:33;26.70;48.80
49777;DHT22;35673;51.482;7.436;2022-09-03T12:01:07;26.90;48.40
49777;DHT22;35673;51.482;7.436;2022-09-03T12:03:44;26.90;48.50
49777;DHT22;35673;51.482;7.436;2022-09-03T12:11:53;26.90;47.70
49777;DHT22;35673;51.482;7.436;2022-09-03T12:16:57;27.00;47.80
49777;DHT22;35673;51.482;7.436;2022-09-03T12:19:40;27.10;47.60
49777;DHT22;35673;51.482;7.436;2022-09-03T12:22:18;27.20;47.50
49777;DHT22;35673;51.482;7.436;2022-09-03T12:24:44;27.30;47.20
49777;DHT22;35673;51.482;7.436;2022-09-03T12:27:20;27.20;47.50
49777;DHT22;35673;51.482;7.436;2022-09-03T12:30:01;27.20;47.40
49777;DHT22;35673;51.482;7.436;2022-09-03T12:32:33;27.20;47.30
49777;DHT22;35673;51.482;7.436;2022-09-03T12:35:21;27.30;47.30
49777;DHT22;35673;51.482;7.436;2022-09-03T12:37:47;27.50;47.10
49777;DHT22;35673;51.482;7.436;2022-09-03T12:40:24;27.50;47.20
49777;DHT22;35673;51.482;7.436;2022-09-03T12:42:51;27.50;47.40
49777;DHT22;35673;51.482;7.436;2022-09-03T12:45:22;27.40;47.60
49777;DHT22;35673;51.482;7.436;2022-09-03T12:47:48;27.40;48.10
49777;DHT22;35673;51.482;7.436;2022-09-03T12:50:17;27.40;48.10
49777;DHT22;35673;51.482;7.436;2022-09-03T12:53:00;27.40;47.70
49777;DHT22;35673;51.482;7.436;2022-09-03T12:55:45;27.40;47.30
49777;DHT22;35673;51.482;7.436;2022-09-03T12:58:22;27.70;47.90
49777;DHT22;35673;51.482;7.436;2022-09-03T13:01:19;27.90;47.00
49777;DHT22;35673;51.482;7.436;2022-09-03T13:06:32;28.00;47.00
49777;DHT22;35673;51.482;7.436;2022-09-03T13:09:04;27.90;47.00
49777;DHT22;35673;51.482;7.436;2022-09-03T13:11:35;27.90;47.00
49777;DHT22;35673;51.482;7.436;2022-09-03T13:14:10;27.80;47.40
49777;DHT22;35673;51.482;7.436;2022-09-03T13:19:26;28.00;47.90
49777;DHT22;35673;51.482;7.436;2022-09-03T13:25:12;28.50;47.40
49777;DHT22;35673;51.482;7.436;2022-09-03T13:27:59;29.30;47.50
49777;DHT22;35673;51.482;7.436;2022-09-03T13:30:40;31.60;45.90
49777;DHT22;35673;51.482;7.436;2022-09-03T13:33:21;32.10;45.10
49777;DHT22;35673;51.482;7.436;2022-09-03T13:35:58;34.80;42.90
49777;DHT22;35673;51.482;7.436;2022-09-03T13:38:26;36.10;41.10
49777;DHT22;35673;51.482;7.436;2022-09-03T13:41:01;37.80;40.30
49777;DHT22;35673;51.482;7.436;2022-09-03T13:43:56;39.40;38.70
49777;DHT22;35673;51.482;7.436;2022-09-03T13:49:03;41.00;36.60
49777;DHT22;35673;51.482;7.436;2022-09-03T13:52:01;38.90;37.60
49777;DHT22;35673;51.482;7.436;2022-09-03T13:54:41;40.10;37.50
49777;DHT22;35673;51.482;7.436;2022-09-03T14:00:10;37.10;38.60
49777;DHT22;35673;51.482;7.436;2022-09-03T14:03:02;35.70;38.80
49777;DHT22;35673;51.482;7.436;2022-09-03T14:05:53;34.50;40.10
49777;DHT22;35673;51.482;7.436;2022-09-03T14:11:23;33.70;41.00
49777;DHT22;35673;51.482;7.436;2022-09-03T14:16:58;34.60;40.50
49777;DHT22;35673;51.482;7.436;2022-09-03T14:22:13;39.80;38.00
49777;DHT22;35673;51.482;7.436;2022-09-03T14:24:52;38.40;37.20
49777;DHT22;35673;51.482;7.436;2022-09-03T14:27:23;36.90;38.10
49777;DHT22;35673;51.482;7.436;2022-09-03T14:29:53;35.20;38.70
49777;DHT22;35673;51.482;7.436;2022-09-03T14:32:30;33.90;40.70
49777;DHT22;35673;51.482;7.436;2022-09-03T14:40:24;31.50;43.50
49777;DHT22;35673;51.482;7.436;2022-09-03T15:01:27;28.70;46.70
49777;DHT22;35673;51.482;7.436;2022-09-03T15:04:02;28.60;47.10
49777;DHT22;35673;51.482;7.436;2022-09-03T15:09:39;28.30;47.80
49777;DHT22;35673;51.482;7.436;2022-09-03T15:14:45;28.30;48.10
49777;DHT22;35673;51.482;7.436;2022-09-03T15:17:53;28.20;48.00
49777;DHT22;35673;51.482;7.436;2022-09-03T15:20:35;28.30;47.90
49777;DHT22;35673;51.482;7.436;2022-09-03T15:31:45;28.30;48.30
49777;DHT22;35673;51.482;7.436;2022-09-03T15:36:56;28.10;48.50
49777;DHT22;35673;51.482;7.436;2022-09-03T15:39:35;28.10;48.60
49777;DHT22;35673;51.482;7.436;2022-09-03T15:42:09;27.90;48.50
49777;DHT22;35673;51.482;7.436;2022-09-03T15:44:46;27.80;48.70
49777;DHT22;35673;51.482;7.436;2022-09-03T15:47:39;27.80;48.80
49777;DHT22;35673;51.482;7.436;2022-09-03T15:50:34;27.80;49.20
49777;DHT22;35673;51.482;7.436;2022-09-03T15:58:05;27.80;49.10
49777;DHT22;35673;51.482;7.436;2022-09-03T16:00:48;27.80;48.90
49777;DHT22;35673;51.482;7.436;2022-09-03T16:03:20;27.80;49.00
49777;DHT22;35673;51.482;7.436;2022-09-03T16:06:06;27.70;49.20
49777;DHT22;35673;51.482;7.436;2022-09-03T16:08:56;27.80;49.20
49777;DHT22;35673;51.482;7.436;2022-09-03T16:11:36;27.80;49.40
49777;DHT22;35673;51.482;7.436;2022-09-03T16:17:30;27.90;49.40
49777;DHT22;35673;51.482;7.436;2022-09-03T16:20:07;28.10;49.30
49777;DHT22;35673;51.482;7.436;2022-09-03T16:22:55;28.20;48.90
49777;DHT22;35673;51.482;7.436;2022-09-03T16:25:33;28.20;48.90
49777;DHT22;35673;51.482;7.436;2022-09-03T16:28:08;28.20;48.80
49777;DHT22;35673;51.482;7.436;2022-09-03T16:41:27;28.00;49.20
49777;DHT22;35673;51.482;7.436;2022-09-03T16:53:19;27.10;50.40
49777;DHT22;35673;51.482;7.436;2022-09-03T16:55:55;27.10;50.70
49777;DHT22;35673;51.482;7.436;2022-09-03T16:58:25;26.80;51.00
49777;DHT22;35673;51.482;7.436;2022-09-03T17:01:13;26.60;51.30
49777;DHT22;35673;51.482;7.436;2022-09-03T17:06:41;26.30;51.70
49777;DHT22;35673;51.482;7.436;2022-09-03T17:09:49;26.30;51.90
49777;DHT22;35673;51.482;7.436;2022-09-03T17:12:37;26.30;52.10
49777;DHT22;35673;51.482;7.436;2022-09-03T17:42:59;25.40;54.10
49777;DHT22;35673;51.482;7.436;2022-09-03T17:48:48;25.30;54.20
49777;DHT22;35673;51.482;7.436;2022-09-03T17:51:25;25.30;54.40
49777;DHT22;35673;51.482;7.436;2022-09-03T17:54:11;25.30;54.50
49777;DHT22;35673;51.482;7.436;2022-09-03T17:56:53;25.30;54.60
49777;DHT22;35673;51.482;7.436;2022-09-03T17:59:41;25.20;54.80
49777;DHT22;35673;51.482;7.436;2022-09-03T18:04:51;25.10;55.10
49777;DHT22;35673;51.482;7.436;2022-09-03T18:07:23;25.00;55.30
49777;DHT22;35673;51.482;7.436;2022-09-03T18:12:45;24.90;55.60
49777;DHT22;35673;51.482;7.436;2022-09-03T18:15:20;24.80;55.80
49777;DHT22;35673;51.482;7.436;2022-09-03T18:18:09;24.80;55.90
49777;DHT22;35673;51.482;7.436;2022-09-03T18:20:44;24.70;56.00
49777;DHT22;35673;51.482;7.436;2022-09-03T18:26:32;24.60;56.20
49777;DHT22;35673;51.482;7.436;2022-09-03T18:32:34;24.50;56.40
49777;DHT22;35673;51.482;7.436;2022-09-03T18:35:17;24.50;56.50
49777;DHT22;35673;51.482;7.436;2022-09-03T18:38:03;24.40;56.70
49777;DHT22;35673;51.482;7.436;2022-09-03T18:41:13;24.40;56.90
49777;DHT22;35673;51.482;7.436;2022-09-03T18:50:28;24.30;57.30
49777;DHT22;35673;51.482;7.436;2022-09-03T18:59:18;24.10;57.80
49777;DHT22;35673;51.482;7.436;2022-09-03T19:02:36;24.10;57.90
49777;DHT22;35673;51.482;7.436;2022-09-03T19:11:54;24.00;58.10
49777;DHT22;35673;51.482;7.436;2022-09-03T19:15:02;24.00;58.20
49777;DHT22;35673;51.482;7.436;2022-09-03T19:24:07;23.80;59.00
49777;DHT22;35673;51.482;7.436;2022-09-03T19:27:06;23.70;59.30
49777;DHT22;35673;51.482;7.436;2022-09-03T19:30:13;23.70;59.70
49777;DHT22;35673;51.482;7.436;2022-09-03T19:36:46;23.60;59.50
49777;DHT22;35673;51.482;7.436;2022-09-03T19:51:19;23.30;61.70
49777;DHT22;35673;51.482;7.436;2022-09-03T19:54:05;23.30;62.40
49777;DHT22;35673;51.482;7.436;2022-09-03T19:56:54;23.20;62.60
49777;DHT22;35673;51.482;7.436;2022-09-03T19:59:42;23.10;62.80
49777;DHT22;35673;51.482;7.436;2022-09-03T20:02:27;23.10;63.20
49777;DHT22;35673;51.482;7.436;2022-09-03T20:05:20;23.00;63.40
49777;DHT22;35673;51.482;7.436;2022-09-03T20:08:05;23.00;63.70
49777;DHT22;35673;51.482;7.436;2022-09-03T20:10:54;22.90;63.90
49777;DHT22;35673;51.482;7.436;2022-09-03T20:13:20;22.80;64.30
49777;DHT22;35673;51.482;7.436;2022-09-03T20:16:07;22.70;64.30
49777;DHT22;35673;51.482;7.436;2022-09-03T20:21:48;22.70;64.80
49777;DHT22;35673;51.482;7.436;2022-09-03T20:24:27;22.60;64.80
49777;DHT22;35673;51.482;7.436;2022-09-03T20:30:00;22.60;65.10
49777;DHT22;35673;51.482;7.436;2022-09-03T20:32:58;22.60;64.90
49777;DHT22;35673;51.482;7.436;2022-09-03T20:41:12;22.60;64.80
49777;DHT22;35673;51.482;7.436;2022-09-03T20:49:15;22.50;65.00
49777;DHT22;35673;51.482;7.436;2022-09-03T20:51:56;22.50;64.80
49777;DHT22;35673;51.482;7.436;2022-09-03T20:57:17;22.40;65.00
49777;DHT22;35673;51.482;7.436;2022-09-03T21:00:17;22.40;65.30
49777;DHT22;35673;51.482;7.436;2022-09-03T21:05:44;22.30;65.60
49777;DHT22;35673;51.482;7.436;2022-09-03T21:08:43;22.30;65.70
49777;DHT22;35673;51.482;7.436;2022-09-03T21:24:47;22.10;66.10
49777;DHT22;35673;51.482;7.436;2022-09-03T21:27:18;22.00;66.30
49777;DHT22;35673;51.482;7.436;2022-09-03T21:29:48;22.00;66.50
49777;DHT22;35673;51.482;7.436;2022-09-03T21:32:20;22.00;66.60
49777;DHT22;35673;51.482;7.436;2022-09-03T21:37:52;22.00;66.80
49777;DHT22;35673;51.482;7.436;2022-09-03T21:40:20;22.00;67.00
49777;DHT22;35673;51.482;7.436;2022-09-03T21:42:55;21.90;67.00
49777;DHT22;35673;51.482;7.436;2022-09-03T21:48:08;21.90;67.20
49777;DHT22;35673;51.482;7.436;2022-09-03T21:50:53;21.90;67.30
49777;DHT22;35673;51.482;7.436;2022-09-03T21:56:24;21.70;67.70
49777;DHT22;35673;51.482;7.436;2022-09-03T21:59:15;21.70;68.00
49777;DHT22;35673;51.482;7.436;2022-09-03T22:04:28;21.60;68.30